Time;durP1;ratioP1;P1;durP2;ratioP2;P2;SDS_P1;SDS_P2;PMS_P1;PMS_P2;Temp;Humidity;BMP_temperature;BMP_pressure;BME280_temperature;BME280_humidity;BME280_pressure;Samples;Min_cycle;Max_cycle;Signal;HPM_P1;HPM_P2
2022/11/30 00:01:48;;;;;;;31.10;15.47;;;;;;;7.65;100.00;99588.16;5087848;28;20187;-80
2022/11/30 00:04:17;;;;;;;38.60;16.83;;;;;;;7.57;100.00;99600.81;5087867;28;20228;-81
2022/11/30 00:06:47;;;;;;;30.40;15.83;;;;;;;7.55;100.00;99597.41;5087699;28;20199;-81
2022/11/30 00:09:16;;;;;;;31.67;16.40;;;;;;;7.57;100.00;99592.91;5090002;28;20273;-81
2022/11/30 00:11:47;;;;;;;32.07;15.40;;;;;;;7.64;100.00;99597.00;5035126;28;20615;-81
2022/11/30 00:14:19;;;;;;;34.03;16.10;;;;;;;7.58;100.00;99592.84;5086240;28;20195;-81
2022/11/30 00:16:49;;;;;;;29.93;15.40;;;;;;;7.61;100.00;99597.09;5027040;28;20209;-81
2022/11/30 00:19:17;;;;;;;27.73;16.00;;;;;;;7.63;100.00;99592.66;5024409;28;20288;-81
2022/11/30 00:21:48;;;;;;;34.07;16.87;;;;;;;7.52;100.00;99590.47;4972832;28;20250;-81
2022/11/30 00:24:16;;;;;;;32.83;14.90;;;;;;;7.55;100.00;99586.84;4990362;28;20231;-81
2022/11/30 00:26:44;;;;;;;31.47;16.00;;;;;;;7.45;100.00;99589.03;4991997;28;20199;-81
2022/11/30 00:29:14;;;;;;;31.67;16.60;;;;;;;7.43;100.00;99590.88;4993980;28;20223;-81
2022/11/30 00:31:42;;;;;;;31.33;15.70;;;;;;;7.60;100.00;99593.63;4991614;28;20206;-80
2022/11/30 00:34:11;;;;;;;36.87;16.43;;;;;;;7.61;100.00;99597.97;4993989;28;20191;-81
2022/11/30 00:36:39;;;;;;;32.27;16.27;;;;;;;7.60;100.00;99592.75;4993648;28;20275;-81
2022/11/30 00:39:09;;;;;;;37.57;16.73;;;;;;;7.72;100.00;99593.09;4998185;28;20315;-81
2022/11/30 00:41:38;;;;;;;41.00;16.87;;;;;;;7.67;100.00;99594.22;5070648;28;20203;-81
2022/11/30 00:44:08;;;;;;;31.67;15.87;;;;;;;7.62;100.00;99598.81;5094412;28;20252;-80
2022/11/30 00:46:37;;;;;;;31.90;15.90;;;;;;;7.69;100.00;99592.34;5094997;28;20200;-81
2022/11/30 00:49:07;;;;;;;29.77;15.63;;;;;;;7.70;100.00;99586.16;5097472;27;20212;-81
2022/11/30 00:51:37;;;;;;;29.83;15.30;;;;;;;7.65;100.00;99588.16;5055408;28;20205;-81
2022/11/30 00:54:06;;;;;;;31.00;14.77;;;;;;;7.62;100.00;99589.13;5049156;28;20224;-81
2022/11/30 00:56:38;;;;;;;34.20;17.07;;;;;;;7.65;100.00;99583.72;5045998;28;20193;-81
2022/11/30 00:59:07;;;;;;;30.50;15.50;;;;;;;7.65;100.00;99583.72;5046037;28;20367;-81
2022/11/30 01:01:35;;;;;;;32.90;15.93;;;;;;;7.63;100.00;99579.47;5044625;28;20258;-81
2022/11/30 01:04:06;;;;;;;31.50;16.43;;;;;;;7.58;100.00;99587.56;5045203;28;20193;-80
2022/11/30 01:06:34;;;;;;;31.27;16.13;;;;;;;7.59;100.00;99591.91;5052312;28;20201;-81
2022/11/30 01:09:03;;;;;;;26.20;15.27;;;;;;;7.55;100.00;99592.97;5047341;28;20217;-80
2022/11/30 01:11:32;;;;;;;32.40;17.10;;;;;;;7.51;100.00;99585.25;5046595;28;20190;-81
2022/11/30 01:14:03;;;;;;;28.63;15.80;;;;;;;7.59;100.00;99591.91;5047300;28;20243;-80
2022/11/30 01:16:34;;;;;;;26.53;14.23;;;;;;;7.58;100.00;99590.19;5074725;28;20214;-81
2022/11/30 01:19:05;;;;;;;31.43;15.60;;;;;;;7.55;100.00;99581.59;5089279;28;20248;-81
2022/11/30 01:21:34;;;;;;;31.17;16.67;;;;;;;7.56;100.00;99593.84;5049500;28;20209;-81
2022/11/30 01:24:02;;;;;;;30.80;16.03;;;;;;;7.58;100.00;99592.84;5052051;28;20224;-81
2022/11/30 01:26:31;;;;;;;30.50;17.00;;;;;;;7.56;100.00;99594.69;5049470;28;20193;-80
2022/11/30 01:28:59;;;;;;;25.97;16.10;;;;;;;7.59;100.00;99596.31;5049748;28;20216;-80
2022/11/30 01:31:30;;;;;;;32.47;17.03;;;;;;;7.59;100.00;99596.31;5052249;28;20189;-81
2022/11/30 01:34:00;;;;;;;30.13;17.60;;;;;;;7.56;100.00;99592.06;5046618;28;20715;-81
2022/11/30 01:36:29;;;;;;;32.40;18.93;;;;;;;7.58;100.00;99590.19;5048129;28;20196;-81
2022/11/30 01:38:58;;;;;;;29.53;17.10;;;;;;;7.60;100.00;99590.13;5049730;28;20193;-80
2022/11/30 01:41:27;;;;;;;30.93;17.93;;;;;;;7.56;100.00;99591.19;5049192;28;20186;-81
2022/11/30 01:43:57;;;;;;;25.70;16.80;;;;;;;7.56;100.00;99594.69;5049873;28;20197;-80
2022/11/30 01:46:31;;;;;;;31.97;18.23;;;;;;;7.51;100.00;99587.91;5051913;28;20189;-81
2022/11/30 01:49:12;;;;;;;33.97;17.47;;;;;;;7.44;100.00;99584.69;5045221;28;20221;-81
2022/11/30 01:51:46;;;;;;;32.60;17.93;;;;;;;7.39;100.00;99590.16;5054950;28;20200;-81
2022/11/30 01:54:19;;;;;;;31.47;16.83;;;;;;;7.49;100.00;99595.88;5091179;28;20183;-81
2022/11/30 01:56:54;;;;;;;32.63;17.90;;;;;;;7.42;100.00;99584.75;5094252;28;20187;-80
2022/11/30 01:59:23;;;;;;;32.70;17.00;;;;;;;7.49;100.00;99582.69;5087521;28;20219;-81
2022/11/30 02:01:55;;;;;;;34.00;17.00;;;;;;;7.58;100.00;99584.06;5055060;28;20195;-81
2022/11/30 02:04:29;;;;;;;39.83;18.40;;;;;;;7.41;100.00;99583.03;5091394;28;20235;-81
2022/11/30 02:06:59;;;;;;;33.47;16.30;;;;;;;7.43;100.00;99581.22;5091814;28;20194;-81
2022/11/30 02:09:34;;;;;;;33.13;17.13;;;;;;;7.44;100.00;99582.91;5108344;28;20246;-81
2022/11/30 02:12:07;;;;;;;33.80;17.67;;;;;;;7.48;100.00;99586.25;5106712;28;20638;-80
2022/11/30 02:14:42;;;;;;;33.73;16.87;;;;;;;7.46;100.00;99588.97;5100389;28;20209;-80
2022/11/30 02:17:20;;;;;;;32.57;18.00;;;;;;;7.49;100.00;99593.25;5109624;28;20209;-81
2022/11/30 02:20:27;;;;;;;33.40;17.83;;;;;;;7.44;100.00;99596.09;5111825;28;20195;-81
2022/11/30 02:23:18;;;;;;;31.23;16.40;;;;;;;7.45;100.00;99596.94;5084588;28;20665;-80
2022/11/30 02:25:57;;;;;;;31.57;16.13;;;;;;;7.43;100.00;99597.03;5106527;28;20198;-81
2022/11/30 02:28:58;;;;;;;31.17;17.10;;;;;;;7.39;100.00;99599.84;5095604;28;20206;-81
2022/11/30 02:31:30;;;;;;;28.40;15.67;;;;;;;7.38;100.00;99600.78;5086314;28;20210;-81
2022/11/30 02:34:00;;;;;;;33.63;16.50;;;;;;;7.36;100.00;99603.47;5090231;28;20203;-80
2022/11/30 02:36:30;;;;;;;33.33;16.37;;;;;;;7.36;100.00;99594.72;5092966;28;20204;-80
2022/11/30 02:38:58;;;;;;;27.90;15.90;;;;;;;7.38;100.00;99603.41;5056081;28;20199;-80
2022/11/30 02:41:36;;;;;;;30.47;16.20;;;;;;;7.41;100.00;99598.00;5093277;28;20188;-81
2022/11/30 02:44:10;;;;;;;29.83;15.77;;;;;;;7.44;100.00;99603.16;5090006;28;20206;-81
2022/11/30 02:47:01;;;;;;;31.33;16.63;;;;;;;7.33;100.00;99600.97;5093095;28;20683;-81
2022/11/30 02:49:37;;;;;;;34.00;16.50;;;;;;;7.46;100.00;99604.78;5092211;28;20215;-81
2022/11/30 02:52:08;;;;;;;27.23;15.83;;;;;;;7.41;100.00;99598.84;5057072;28;20302;-81
2022/11/30 02:54:38;;;;;;;30.77;15.33;;;;;;;7.33;100.00;99611.50;5058019;28;20237;-81
2022/11/30 02:57:06;;;;;;;30.13;15.97;;;;;;;7.34;100.00;99612.38;5056546;28;20245;-81
2022/11/30 02:59:39;;;;;;;25.30;15.60;;;;;;;7.37;100.00;99615.72;5092740;28;20195;-82
2022/11/30 03:02:10;;;;;;;28.23;15.60;;;;;;;7.38;100.00;99609.53;5089276;28;20184;-80
2022/11/30 03:04:39;;;;;;;28.83;16.37;;;;;;;7.44;100.00;99609.28;5089370;28;20226;-81
2022/11/30 03:07:08;;;;;;;31.77;16.10;;;;;;;7.40;100.00;99612.94;5094792;28;20261;-82
2022/11/30 03:09:38;;;;;;;31.20;15.77;;;;;;;7.38;100.00;99606.91;5093842;28;20682;-82
2022/11/30 03:12:08;;;;;;;30.50;16.03;;;;;;;7.46;100.00;99604.78;5087837;28;20195;-81
2022/11/30 03:14:36;;;;;;;27.00;16.17;;;;;;;7.39;100.00;99613.88;5092819;28;20204;-81
2022/11/30 03:17:06;;;;;;;31.63;15.97;;;;;;;7.43;100.00;99612.84;5090121;28;20211;-82
2022/11/30 03:19:35;;;;;;;26.83;15.67;;;;;;;7.43;100.00;99615.47;5088697;28;20192;-81
2022/11/30 03:22:04;;;;;;;33.57;16.07;;;;;;;7.41;100.00;99611.16;5088348;28;20195;-81
2022/11/30 03:24:33;;;;;;;27.00;16.03;;;;;;;7.39;100.00;99615.66;5027752;28;20190;-81
2022/11/30 03:27:04;;;;;;;29.50;16.17;;;;;;;7.43;100.00;99615.47;5023886;28;20189;-81
2022/11/30 03:29:32;;;;;;;30.43;16.43;;;;;;;7.45;100.00;99620.66;4931977;29;20221;-81
2022/11/30 03:32:01;;;;;;;29.70;15.30;;;;;;;7.43;100.00;99620.75;4917405;29;20338;-81
2022/11/30 03:34:32;;;;;;;28.93;16.17;;;;;;;7.42;100.00;99618.16;4931006;29;20208;-81
2022/11/30 03:37:00;;;;;;;26.67;16.50;;;;;;;7.49;100.00;99624.88;4933217;29;20204;-82
2022/11/30 03:39:29;;;;;;;31.77;16.43;;;;;;;7.55;100.00;99621.13;4929856;29;20201;-81
2022/11/30 03:41:57;;;;;;;28.47;15.57;;;;;;;7.46;100.00;99617.09;4948986;28;20276;-81
2022/11/30 03:44:25;;;;;;;27.90;15.87;;;;;;;7.49;100.00;99611.69;5006235;28;20252;-81
2022/11/30 03:46:53;;;;;;;30.07;17.27;;;;;;;7.46;100.00;99622.38;4978403;28;20205;-81
2022/11/30 03:49:22;;;;;;;31.80;16.63;;;;;;;7.37;100.00;99621.00;5041591;28;20189;-81
2022/11/30 03:51:52;;;;;;;25.40;15.60;;;;;;;7.44;100.00;99621.59;5049993;28;20204;-81
2022/11/30 03:54:21;;;;;;;29.63;16.00;;;;;;;7.42;100.00;99623.41;4997365;28;20247;-81
2022/11/30 03:56:49;;;;;;;27.30;15.17;;;;;;;7.45;100.00;99624.16;5043175;28;20198;-81
2022/11/30 03:59:18;;;;;;;26.77;15.67;;;;;;;7.50;100.00;99621.31;5046507;28;20338;-81
2022/11/30 04:01:47;;;;;;;26.47;16.63;;;;;;;7.48;100.00;99625.78;5049831;28;20329;-81
2022/11/30 04:04:16;;;;;;;26.83;16.03;;;;;;;7.44;100.00;99626.88;5057033;28;20195;-81
2022/11/30 04:06:44;;;;;;;25.80;15.77;;;;;;;7.39;100.00;99624.41;5092384;28;20202;-81
2022/11/30 04:09:14;;;;;;;26.13;15.77;;;;;;;7.44;100.00;99616.31;5095977;28;20199;-81
2022/11/30 04:11:43;;;;;;;29.03;15.73;;;;;;;7.42;100.00;99619.00;5093674;28;20215;-81
2022/11/30 04:14:12;;;;;;;27.10;16.00;;;;;;;7.43;100.00;99618.09;5091953;28;20241;-81
2022/11/30 04:16:41;;;;;;;26.47;16.13;;;;;;;7.46;100.00;99620.59;5093368;28;20199;-81
2022/11/30 04:19:09;;;;;;;27.23;16.20;;;;;;;7.43;100.00;99627.75;5094701;28;20199;-82
2022/11/30 04:21:38;;;;;;;27.23;16.07;;;;;;;7.54;100.00;99617.63;5029369;28;20243;-81
2022/11/30 04:24:08;;;;;;;26.53;16.77;;;;;;;7.53;100.00;99620.31;4982023;28;20205;-81
2022/11/30 04:26:40;;;;;;;28.97;16.90;;;;;;;7.51;100.00;99628.28;4988547;28;20627;-81
2022/11/30 04:29:12;;;;;;;32.47;17.13;;;;;;;7.64;100.00;99618.94;4990911;28;20187;-81
2022/11/30 04:31:41;;;;;;;33.30;17.73;;;;;;;7.50;100.00;99629.22;4991528;28;20219;-81
2022/11/30 04:34:11;;;;;;;36.70;18.37;;;;;;;7.52;100.00;99635.28;4989297;28;20219;-81
2022/11/30 04:36:39;;;;;;;30.37;16.97;;;;;;;7.50;100.00;99631.84;4990923;28;20218;-81
2022/11/30 04:39:08;;;;;;;33.90;17.17;;;;;;;7.49;100.00;99630.16;5007146;28;20220;-81
2022/11/30 04:41:40;;;;;;;35.13;18.23;;;;;;;7.46;100.00;99625.88;5065872;28;20200;-81
2022/11/30 04:44:09;;;;;;;34.23;18.90;;;;;;;7.51;100.00;99625.66;5034410;28;20248;-81
2022/11/30 04:46:37;;;;;;;35.07;17.50;;;;;;;7.49;100.00;99621.38;5063883;28;20246;-81
2022/11/30 04:49:06;;;;;;;34.63;18.97;;;;;;;7.46;100.00;99619.75;5072986;28;20269;-81
2022/11/30 04:51:36;;;;;;;37.73;18.03;;;;;;;7.47;100.00;99624.94;5082633;28;20261;-81
2022/11/30 04:54:05;;;;;;;34.97;17.73;;;;;;;7.49;100.00;99627.50;5090483;28;20199;-81
2022/11/30 04:56:34;;;;;;;32.63;17.50;;;;;;;7.39;100.00;99624.41;5094993;28;20244;-81
2022/11/30 04:59:04;;;;;;;29.80;16.87;;;;;;;7.41;100.00;99627.84;5093837;28;20207;-81
2022/11/30 05:01:33;;;;;;;30.83;17.63;;;;;;;7.42;100.00;99637.44;5090151;28;20192;-81
2022/11/30 05:04:03;;;;;;;33.20;18.20;;;;;;;7.41;100.00;99626.97;5090251;28;20200;-81
2022/11/30 05:06:32;;;;;;;32.23;16.97;;;;;;;7.45;100.00;99633.84;5093670;28;20278;-81
2022/11/30 05:09:01;;;;;;;28.70;16.97;;;;;;;7.47;100.00;99635.47;5089739;28;20196;-81
2022/11/30 05:11:29;;;;;;;32.57;17.03;;;;;;;7.43;100.00;99633.03;5091707;28;20220;-81
2022/11/30 05:13:58;;;;;;;29.37;16.23;;;;;;;7.46;100.00;99635.56;5088672;28;20261;-81
2022/11/30 05:16:29;;;;;;;33.10;17.93;;;;;;;7.45;100.00;99632.06;5097356;27;20196;-81
2022/11/30 05:18:57;;;;;;;33.33;17.70;;;;;;;7.45;100.00;99633.84;5094613;28;20279;-81
2022/11/30 05:21:25;;;;;;;31.97;17.53;;;;;;;7.49;100.00;99634.56;5059962;28;20199;-81
2022/11/30 05:23:54;;;;;;;31.90;18.27;;;;;;;7.45;100.00;99633.84;5048437;28;20382;-81
2022/11/30 05:26:22;;;;;;;32.47;16.93;;;;;;;7.41;100.00;99635.75;5043522;28;20194;-81
2022/11/30 05:28:50;;;;;;;31.63;17.00;;;;;;;7.43;100.00;99633.91;5043507;28;20208;-81
2022/11/30 05:31:19;;;;;;;37.50;17.27;;;;;;;7.42;100.00;99637.44;5051010;28;20286;-81
2022/11/30 05:33:51;;;;;;;33.53;17.73;;;;;;;7.50;100.00;99641.53;5048073;28;20189;-81
2022/11/30 05:36:21;;;;;;;30.23;16.47;;;;;;;7.48;100.00;99646.88;5044077;28;20209;-81
2022/11/30 05:38:50;;;;;;;30.67;16.63;;;;;;;7.37;100.00;99650.00;5051774;28;20197;-81
2022/11/30 05:41:21;;;;;;;29.80;16.90;;;;;;;7.32;100.00;99653.72;5055164;28;20199;-81
2022/11/30 05:43:49;;;;;;;29.27;16.30;;;;;;;7.38;100.00;99645.56;5090797;28;20245;-81
2022/11/30 05:46:18;;;;;;;33.83;17.37;;;;;;;7.37;100.00;99654.41;5092006;28;20194;-81
2022/11/30 05:48:52;;;;;;;31.07;17.07;;;;;;;7.39;100.00;99644.66;5089758;28;20208;-81
2022/11/30 05:51:22;;;;;;;28.80;16.73;;;;;;;7.42;100.00;99655.91;5089789;28;20335;-81
2022/11/30 05:53:51;;;;;;;31.00;16.10;;;;;;;7.46;100.00;99661.91;5072958;28;20188;-81
2022/11/30 05:56:22;;;;;;;27.27;15.97;;;;;;;7.50;100.00;99657.34;5093747;28;20309;-81
2022/11/30 05:58:52;;;;;;;30.83;17.33;;;;;;;7.49;100.00;99658.28;5091798;28;20631;-81
2022/11/30 06:01:23;;;;;;;31.00;16.00;;;;;;;7.53;100.00;99655.47;5092699;28;20191;-81
2022/11/30 06:03:53;;;;;;;33.77;16.80;;;;;;;7.57;100.00;99653.53;5096222;27;20260;-81
2022/11/30 06:06:22;;;;;;;30.83;16.67;;;;;;;7.54;100.00;99662.44;5088254;28;20258;-81
2022/11/30 06:08:51;;;;;;;39.23;17.73;;;;;;;7.45;100.00;99655.78;5054191;28;20273;-81
2022/11/30 06:11:19;;;;;;;33.57;17.33;;;;;;;7.46;100.00;99664.53;5093206;28;20215;-81
2022/11/30 06:13:48;;;;;;;29.27;16.67;;;;;;;7.52;100.00;99661.63;5092148;28;20188;-80
2022/11/30 06:16:18;;;;;;;33.97;17.27;;;;;;;7.43;100.00;99662.91;5028961;28;20228;-81
2022/11/30 06:18:46;;;;;;;34.07;17.90;;;;;;;7.45;100.00;99660.19;5027838;28;20598;-81
2022/11/30 06:21:16;;;;;;;33.03;17.80;;;;;;;7.51;100.00;99672.25;4997948;28;20190;-81
2022/11/30 06:23:52;;;;;;;30.63;15.57;;;;;;;7.49;100.00;99674.09;5028755;28;20193;-81
2022/11/30 06:26:20;;;;;;;34.10;18.20;;;;;;;7.46;100.00;99675.09;5031240;28;20200;-81
2022/11/30 06:28:49;;;;;;;32.13;17.50;;;;;;;7.42;100.00;99676.13;5023947;28;20232;-81
2022/11/30 06:31:17;;;;;;;31.70;17.50;;;;;;;7.50;100.00;99667.91;5027503;28;20695;-81
2022/11/30 06:33:45;;;;;;;30.23;17.33;;;;;;;7.51;100.00;99680.16;5036455;28;20200;-81
2022/11/30 06:36:14;;;;;;;36.03;18.20;;;;;;;7.46;100.00;99680.38;5088242;28;20321;-81
2022/11/30 06:38:44;;;;;;;31.20;17.13;;;;;;;7.53;100.00;99688.84;5090657;28;20200;-82
2022/11/30 06:41:13;;;;;;;28.63;16.37;;;;;;;7.52;100.00;99690.63;5093156;28;20245;-81
2022/11/30 06:43:42;;;;;;;34.10;17.40;;;;;;;7.53;100.00;99684.47;5090499;28;20196;-81
2022/11/30 06:46:10;;;;;;;32.53;16.83;;;;;;;7.54;100.00;99685.31;5088164;28;20261;-81
2022/11/30 06:48:40;;;;;;;40.67;19.93;;;;;;;7.45;100.00;99691.81;5089502;28;20200;-81
2022/11/30 06:51:10;;;;;;;29.53;16.70;;;;;;;7.52;100.00;99692.41;5091812;28;20199;-81
2022/11/30 06:53:39;;;;;;;31.87;18.57;;;;;;;7.51;100.00;99691.53;5095521;27;20199;-81
2022/11/30 06:56:12;;;;;;;34.50;17.93;;;;;;;7.54;100.00;99696.72;5092658;28;20184;-81
2022/11/30 06:58:42;;;;;;;31.93;17.27;;;;;;;7.56;100.00;99697.50;5092016;28;20200;-81
2022/11/30 07:01:12;;;;;;;35.43;17.90;;;;;;;7.53;100.00;99694.09;5092902;28;20188;-81
2022/11/30 07:03:41;;;;;;;33.03;17.13;;;;;;;7.52;100.00;99700.31;5092969;28;20192;-81
2022/11/30 07:06:11;;;;;;;29.80;16.40;;;;;;;7.53;100.00;99692.38;5085786;28;20231;-81
2022/11/30 07:08:41;;;;;;;32.57;17.53;;;;;;;7.52;100.00;99695.03;5094917;27;20229;-82
2022/11/30 07:11:12;;;;;;;38.43;18.43;;;;;;;7.50;100.00;99700.38;5088847;28;20248;-82
2022/11/30 07:13:40;;;;;;;34.17;18.33;;;;;;;7.51;100.00;99695.97;5046608;28;20290;-81
2022/11/30 07:16:12;;;;;;;34.23;17.53;;;;;;;7.53;100.00;99700.28;5044004;28;20275;-81
2022/11/30 07:18:42;;;;;;;34.70;17.93;;;;;;;7.55;100.00;99695.78;5045013;28;20216;-82
2022/11/30 07:21:10;;;;;;;41.07;19.27;;;;;;;7.54;100.00;99695.84;5045304;28;20243;-81
2022/11/30 07:26:27;;;;;;;42.00;19.70;;;;;;;7.72;100.00;99708.22;5049902;28;20350;-80
2022/11/30 07:28:57;;;;;;;43.47;19.80;;;;;;;7.71;100.00;99706.50;5041158;28;20201;-80
2022/11/30 07:31:28;;;;;;;41.47;19.27;;;;;;;7.62;100.00;99706.91;5061481;28;20208;-81
2022/11/30 07:33:58;;;;;;;44.87;20.20;;;;;;;7.65;100.00;99705.00;5092810;28;20219;-80
2022/11/30 07:36:29;;;;;;;41.93;19.40;;;;;;;7.65;100.00;99696.25;5095626;28;20196;-81
2022/11/30 07:38:57;;;;;;;39.50;19.77;;;;;;;7.65;100.00;99705.00;5097091;28;20256;-80
2022/11/30 07:41:28;;;;;;;42.60;19.90;;;;;;;7.70;100.00;99703.00;5092941;28;20252;-81
2022/11/30 07:43:57;;;;;;;37.20;19.63;;;;;;;7.70;100.00;99708.28;5095738;28;20245;-81
2022/11/30 07:46:26;;;;;;;41.73;19.90;;;;;;;7.76;100.00;99712.44;5073681;28;20207;-80
2022/11/30 07:48:55;;;;;;;45.37;20.47;;;;;;;7.65;100.00;99710.28;5073661;28;20231;-81
2022/11/30 07:51:23;;;;;;;38.37;19.60;;;;;;;7.70;100.00;99716.19;5071127;28;20341;-81
2022/11/30 07:53:52;;;;;;;40.30;20.80;;;;;;;7.84;100.00;99717.38;5069076;28;20574;-81
2022/11/30 07:56:21;;;;;;;41.67;20.97;;;;;;;7.82;100.00;99706.06;5073980;28;20281;-81
2022/11/30 07:58:57;;;;;;;42.20;21.23;;;;;;;7.89;100.00;99712.75;5069019;28;20196;-81
2022/11/30 08:01:28;;;;;;;43.40;20.23;;;;;;;7.95;100.00;99717.78;5071095;28;20250;-81
2022/11/30 08:03:59;;;;;;;35.33;18.57;;;;;;;7.97;100.00;99714.13;5073683;28;20283;-81
2022/11/30 08:06:29;;;;;;;38.53;19.07;;;;;;;7.93;100.00;99712.56;5071839;28;20192;-81
2022/11/30 08:09:03;;;;;;;36.67;19.23;;;;;;;7.89;100.00;99707.47;5070404;28;20191;-80
2022/11/30 08:11:33;;;;;;;36.57;18.80;;;;;;;7.93;100.00;99712.56;5086101;28;20253;-81
2022/11/30 08:14:04;;;;;;;44.70;19.63;;;;;;;8.02;100.00;99716.59;5095044;28;20318;-80
2022/11/30 08:16:36;;;;;;;47.87;22.33;;;;;;;8.12;100.00;99709.13;5096262;28;20592;-81
2022/11/30 08:19:05;;;;;;;56.47;23.07;;;;;;;8.08;100.00;99708.38;5090734;28;20208;-80
2022/11/30 08:21:33;;;;;;;55.77;23.93;;;;;;;8.08;100.00;99712.78;5095792;28;20210;-81
2022/11/30 08:24:02;;;;;;;51.97;22.87;;;;;;;8.02;100.00;99714.81;5053124;28;20195;-81
2022/11/30 08:26:32;;;;;;;51.90;23.00;;;;;;;8.16;100.00;99716.81;5095966;28;20195;-81
2022/11/30 08:29:03;;;;;;;57.67;23.70;;;;;;;8.20;100.00;99721.03;5089655;28;20229;-81
2022/11/30 08:31:35;;;;;;;47.50;21.70;;;;;;;8.27;100.00;99719.81;5049608;28;20190;-81
2022/11/30 08:34:07;;;;;;;48.70;22.70;;;;;;;8.26;100.00;99718.09;5016619;28;20228;-80
2022/11/30 08:36:36;;;;;;;45.70;22.13;;;;;;;8.36;100.00;99733.56;5053222;28;20706;-81
2022/11/30 08:39:06;;;;;;;51.77;22.13;;;;;;;8.15;100.00;99716.88;5046202;28;20199;-81
2022/11/30 08:41:38;;;;;;;45.87;21.83;;;;;;;8.34;100.00;99715.13;5052961;28;20262;-81
2022/11/30 08:44:08;;;;;;;49.20;21.90;;;;;;;8.41;100.00;99724.50;5048097;28;20189;-81
2022/11/30 08:46:38;;;;;;;48.37;22.33;;;;;;;8.40;100.00;99717.53;5049254;28;20197;-81
2022/11/30 08:49:23;;;;;;;41.37;21.60;;;;;;;8.45;100.00;99722.56;5067443;28;20187;-81
2022/11/30 08:51:55;;;;;;;43.40;20.47;;;;;;;8.52;100.00;99722.22;5095120;28;20663;-81
2022/11/30 08:54:45;;;;;;;42.40;20.73;;;;;;;8.46;100.00;99725.13;5095108;28;20259;-81
2022/11/30 08:57:15;;;;;;;48.70;21.33;;;;;;;8.56;100.00;99729.06;5089377;28;20682;-82
2022/11/30 08:59:48;;;;;;;45.37;21.17;;;;;;;8.60;100.00;99727.16;5057275;28;20666;-81
2022/11/30 09:02:19;;;;;;;44.57;20.67;;;;;;;8.68;100.00;99724.97;5060910;28;20188;-81
2022/11/30 09:04:50;;;;;;;40.60;19.80;;;;;;;8.64;100.00;99726.06;5090953;28;20220;-81
2022/11/30 09:07:19;;;;;;;36.87;19.87;;;;;;;8.66;100.00;99726.00;5097476;27;20708;-81
2022/11/30 09:09:47;;;;;;;39.33;20.07;;;;;;;8.67;100.00;99728.56;5085935;28;20206;-81
2022/11/30 09:12:16;;;;;;;36.27;19.20;;;;;;;8.71;100.00;99732.78;5088911;28;20184;-81
2022/11/30 09:14:50;;;;;;;36.80;19.73;;;;;;;8.80;100.00;99740.28;5093836;28;20196;-81
2022/11/30 09:17:25;;;;;;;38.80;20.57;;;;;;;8.86;100.00;99733.81;5093798;28;20191;-81
2022/11/30 09:19:54;;;;;;;37.03;18.60;;;;;;;8.90;100.00;99730.13;5097204;27;20253;-80
2022/11/30 09:22:24;;;;;;;34.43;18.20;;;;;;;8.77;100.00;99732.47;5090808;28;20203;-82
2022/11/30 09:24:55;;;;;;;32.53;17.33;;;;;;;8.91;100.00;99728.34;5094695;28;20712;-81
2022/11/30 09:27:29;;;;;;;31.57;18.30;;;;;;;8.97;100.00;99731.53;5095076;27;20191;-81
2022/11/30 09:29:59;;;;;;;31.40;17.07;;;;;;;8.80;100.00;99736.78;4992734;28;20194;-81
2022/11/30 09:32:28;;;;;;;31.83;17.47;;;;;;;8.91;100.00;99728.34;4990540;28;20202;-81
2022/11/30 09:34:57;;;;;;;34.40;17.87;;;;;;;8.94;100.00;99734.31;4987713;28;20291;-81
2022/11/30 09:37:27;;;;;;;30.00;16.70;;;;;;;8.95;100.00;99725.47;4989385;28;20187;-81
2022/11/30 09:39:56;;;;;;;31.27;18.00;;;;;;;8.74;100.00;99729.13;4992732;28;20198;-81
2022/11/30 09:42:39;;;;;;;28.90;16.60;;;;;;;8.83;100.00;99732.19;4991436;28;20207;-81
2022/11/30 09:45:16;;;;;;;31.60;17.93;;;;;;;8.89;100.00;99724.00;4957038;28;20199;-82
2022/11/30 09:48:12;;;;;;;32.57;17.13;;;;;;;8.95;100.00;99722.81;5025180;28;20374;-81
2022/11/30 09:50:44;;;;;;;29.57;16.13;;;;;;;9.06;100.00;99723.16;5093828;28;20191;-81
2022/11/30 09:53:22;;;;;;;26.90;16.47;;;;;;;9.03;100.00;99719.81;5093925;28;20211;-81
2022/11/30 09:55:59;;;;;;;27.73;16.00;;;;;;;8.98;100.00;99721.84;5094349;28;20203;-81
2022/11/30 09:58:39;;;;;;;25.07;15.77;;;;;;;9.08;100.00;99715.19;5092284;28;20201;-82
2022/11/30 10:01:17;;;;;;;28.37;15.60;;;;;;;9.03;100.00;99715.38;5093927;28;20198;-82
2022/11/30 10:03:47;;;;;;;30.27;15.07;;;;;;;9.03;100.00;99714.53;5093594;28;20707;-82
2022/11/30 10:06:27;;;;;;;23.17;14.83;;;;;;;9.27;100.00;99715.97;5092087;28;20224;-81
2022/11/30 10:09:20;;;;;;;27.83;16.13;;;;;;;9.23;100.00;99716.19;5093832;28;20199;-81
2022/11/30 10:11:58;;;;;;;24.73;15.30;;;;;;;9.32;100.00;99713.94;5096317;27;20208;-81
2022/11/30 10:15:03;;;;;;;24.77;14.87;;;;;;;9.23;100.00;99711.75;5091589;28;20231;-82
2022/11/30 10:17:43;;;;;;;26.20;15.00;;;;;;;9.16;100.00;99715.63;5091261;28;20216;-82
2022/11/30 10:20:25;;;;;;;26.47;14.70;;;;;;;9.17;100.00;99717.38;5009637;28;20194;-81
2022/11/30 10:23:07;;;;;;;24.40;14.60;;;;;;;9.04;100.00;99709.16;5093345;28;20248;-81
2022/11/30 10:25:47;;;;;;;24.97;14.43;;;;;;;9.06;100.00;99711.72;5093321;28;20225;-80
2022/11/30 10:28:19;;;;;;;21.93;14.50;;;;;;;9.04;100.00;99714.44;5086341;28;20707;-81
2022/11/30 10:31:11;;;;;;;28.33;14.47;;;;;;;8.98;100.00;99714.75;5070816;28;20231;-81
2022/11/30 10:33:46;;;;;;;23.80;13.63;;;;;;;8.89;100.00;99717.84;5071023;28;20266;-81
2022/11/30 10:36:29;;;;;;;23.53;13.97;;;;;;;8.83;100.00;99708.41;5071015;28;20700;-81
2022/11/30 10:39:04;;;;;;;23.37;13.63;;;;;;;8.76;100.00;99712.28;5070843;28;20188;-81
2022/11/30 10:41:42;;;;;;;23.20;13.93;;;;;;;8.70;100.00;99706.44;5068148;28;20188;-81
2022/11/30 10:44:15;;;;;;;23.37;14.10;;;;;;;8.80;100.00;99708.56;5069480;28;20196;-81
2022/11/30 10:46:53;;;;;;;22.43;13.60;;;;;;;8.95;100.00;99712.25;5070903;28;20223;-82
2022/11/30 10:49:24;;;;;;;23.97;14.07;;;;;;;9.00;100.00;99704.97;5085306;28;20195;-81
2022/11/30 10:51:55;;;;;;;25.70;14.30;;;;;;;9.02;100.00;99705.75;5092798;28;20215;-81
2022/11/30 10:54:23;;;;;;;25.63;14.93;;;;;;;9.01;100.00;99697.91;5092018;28;20211;-81
2022/11/30 10:56:53;;;;;;;22.23;14.17;;;;;;;9.00;100.00;99707.63;5088679;28;20191;-81
2022/11/30 10:59:27;;;;;;;25.97;13.60;;;;;;;9.09;100.00;99701.88;5090796;28;20359;-81
2022/11/30 11:01:55;;;;;;;23.60;14.67;;;;;;;9.04;100.00;99701.22;5092866;28;20195;-82
2022/11/30 11:04:28;;;;;;;23.50;14.10;;;;;;;9.01;100.00;99704.03;5111184;28;20195;-81
2022/11/30 11:07:09;;;;;;;28.13;15.17;;;;;;;8.93;100.00;99698.25;5048354;28;20213;-82
2022/11/30 11:09:41;;;;;;;25.77;14.80;;;;;;;9.01;100.00;99700.53;5023974;28;20202;-82
2022/11/30 11:12:17;;;;;;;24.63;13.90;;;;;;;9.05;100.00;99702.09;4980752;28;20189;-82
2022/11/30 11:14:48;;;;;;;25.60;14.43;;;;;;;8.95;100.00;99701.69;5027278;28;20694;-82
2022/11/30 11:17:24;;;;;;;27.53;14.70;;;;;;;8.97;100.00;99710.38;5023312;28;20307;-81
2022/11/30 11:19:55;;;;;;;24.50;14.33;;;;;;;9.04;100.00;99705.66;5030640;28;20280;-81
2022/11/30 11:22:27;;;;;;;23.50;13.77;;;;;;;8.92;100.00;99701.84;4983647;28;20204;-81
2022/11/30 11:25:21;;;;;;;21.07;12.77;;;;;;;8.90;100.00;99703.72;4984376;28;20268;-81
2022/11/30 11:27:54;;;;;;;21.93;11.73;;;;;;;8.82;100.00;99700.56;5009320;28;20194;-80
2022/11/30 11:30:30;;;;;;;23.30;11.80;;;;;;;8.91;100.00;99699.28;4950132;28;20197;-81
2022/11/30 11:33:00;;;;;;;20.73;10.77;;;;;;;8.96;100.00;99703.38;4952019;28;20232;-81
2022/11/30 11:35:40;;;;;;;18.80;11.37;;;;;;;8.96;100.00;99697.25;5006552;28;20214;-81
2022/11/30 11:38:19;;;;;;;20.23;11.03;;;;;;;8.86;100.00;99700.34;4988703;28;20248;-80
2022/11/30 11:41:03;;;;;;;19.67;10.77;;;;;;;8.93;100.00;99695.63;5032799;28;20290;-81